Time;durP1;ratioP1;P1;durP2;ratioP2;P2;SDS_P1;SDS_P2;PMS_P1;PMS_P2;Temp;Humidity;BMP_temperature;BMP_pressure;BME280_temperature;BME280_humidity;BME280_pressure;Samples;Min_cycle;Max_cycle;Signal;HPM_P1;HPM_P2
2022/10/12 00:01:40;;;;;;;3.28;1.63;;;20.50;56.60;;;;;;6266013;28;20347;-71
2022/10/12 00:04:40;;;;;;;2.00;1.30;;;20.50;56.60;;;;;;6265457;28;20021;-71
2022/10/12 00:07:41;;;;;;;1.85;1.30;;;20.50;56.60;;;;;;6265841;28;20060;-71
2022/10/12 00:10:43;;;;;;;1.38;1.17;;;20.50;56.60;;;;;;6264217;28;20021;-71
2022/10/12 00:13:43;;;;;;;3.42;1.40;;;20.50;56.70;;;;;;6264082;28;20032;-71
2022/10/12 00:16:44;;;;;;;2.75;1.38;;;20.50;56.70;;;;;;6265803;28;20021;-71
2022/10/12 00:19:45;;;;;;;2.38;1.27;;;20.50;56.70;;;;;;6265458;28;20025;-71
2022/10/12 00:22:46;;;;;;;2.35;1.10;;;20.50;56.70;;;;;;6265757;28;20078;-71
2022/10/12 00:25:47;;;;;;;2.33;1.33;;;20.50;56.70;;;;;;6265693;28;20025;-71
2022/10/12 00:28:53;;;;;;;2.08;1.15;;;20.50;56.70;;;;;;6264568;28;20723;-71
2022/10/12 00:31:53;;;;;;;1.63;1.20;;;20.50;56.70;;;;;;6264436;28;20028;-71
2022/10/12 00:34:54;;;;;;;2.58;1.38;;;20.50;56.70;;;;;;6265589;28;20550;-71
2022/10/12 00:37:55;;;;;;;1.70;1.00;;;20.50;56.70;;;;;;6265805;28;20440;-71
2022/10/12 00:40:56;;;;;;;1.77;1.25;;;20.50;56.70;;;;;;6265498;28;20017;-71
2022/10/12 00:43:57;;;;;;;2.13;1.50;;;20.50;56.70;;;;;;6264249;28;20025;-72
2022/10/12 00:46:58;;;;;;;2.15;1.30;;;20.50;56.70;;;;;;6255973;28;20473;-71
2022/10/12 00:50:21;;;;;;;1.98;1.10;;;20.50;56.70;;;;;;6240710;28;20069;-71
2022/10/12 00:53:27;;;;;;;2.38;1.55;;;20.50;57.30;;;;;;6263783;28;20104;-71
2022/10/12 00:56:30;;;;;;;1.55;1.17;;;20.50;56.70;;;;;;6269730;28;20025;-71
2022/10/12 00:59:36;;;;;;;1.95;1.20;;;20.50;56.60;;;;;;6268709;28;20036;-72
2022/10/12 01:02:40;;;;;;;1.52;1.27;;;20.50;56.60;;;;;;6269681;28;20056;-71
2022/10/12 01:05:41;;;;;;;2.47;1.13;;;20.50;56.60;;;;;;6269385;28;20083;-72
2022/10/12 01:08:42;;;;;;;1.52;1.33;;;20.50;56.60;;;;;;6269516;28;20515;-71
2022/10/12 01:11:43;;;;;;;1.73;1.10;;;20.50;57.30;;;;;;6269144;28;20017;-71
2022/10/12 01:14:44;;;;;;;1.65;1.20;;;20.40;56.50;;;;;;6269533;28;20508;-72
2022/10/12 01:17:50;;;;;;;1.95;1.27;;;20.40;56.50;;;;;;6269701;28;20111;-71
2022/10/12 01:21:05;;;;;;;2.00;1.23;;;20.40;56.60;;;;;;6267729;28;20029;-71
2022/10/12 01:24:50;;;;;;;1.80;1.38;;;20.40;56.60;;;;;;6268750;28;20055;-71
2022/10/12 01:27:55;;;;;;;2.10;1.40;;;20.40;56.50;;;;;;6263465;28;20125;-71
2022/10/12 01:31:06;;;;;;;2.35;1.33;;;20.40;56.50;;;;;;6269190;28;20437;-71
2022/10/12 01:34:25;;;;;;;2.03;1.10;;;20.40;56.50;;;;;;6268977;28;20478;-72
2022/10/12 01:37:53;;;;;;;1.65;1.00;;;20.40;56.50;;;;;;6268859;28;20497;-69
2022/10/12 01:41:15;;;;;;;2.05;1.20;;;20.40;56.50;;;;;;6268903;28;20025;-71
2022/10/12 01:44:20;;;;;;;1.75;1.17;;;20.40;56.60;;;;;;6268709;28;20024;-68
2022/10/12 01:47:21;;;;;;;1.75;1.20;;;20.40;56.50;;;;;;6269090;28;20478;-71
2022/10/12 01:50:55;;;;;;;1.98;1.05;;;20.40;56.50;;;;;;6269527;28;20550;-71
2022/10/12 01:54:14;;;;;;;2.10;1.08;;;20.40;56.50;;;;;;6254944;28;20044;-72
2022/10/12 01:57:30;;;;;;;2.22;1.13;;;20.40;56.50;;;;;;6269338;28;20044;-71
2022/10/12 02:00:46;;;;;;;1.75;1.20;;;20.40;56.60;;;;;;6269692;28;20025;-70
2022/10/12 02:04:00;;;;;;;2.13;1.30;;;20.40;56.50;;;;;;6267412;28;20653;-71
2022/10/12 02:07:11;;;;;;;2.65;1.20;;;20.40;56.50;;;;;;6269078;28;20471;-71
2022/10/12 02:10:16;;;;;;;2.28;1.20;;;20.40;56.50;;;;;;6268924;28;20016;-71
2022/10/12 02:13:19;;;;;;;3.83;1.15;;;20.40;56.50;;;;;;6268910;28;20025;-71
2022/10/12 02:16:33;;;;;;;1.90;1.40;;;20.40;56.50;;;;;;6268461;28;20047;-71
2022/10/12 02:19:40;;;;;;;2.33;1.10;;;20.40;56.50;;;;;;6268908;28;20052;-71
2022/10/12 02:22:45;;;;;;;1.58;1.10;;;20.40;56.50;;;;;;6268858;28;20086;-71
2022/10/12 02:25:48;;;;;;;2.70;1.25;;;20.40;56.50;;;;;;6268785;28;20467;-70
2022/10/12 02:28:49;;;;;;;1.45;1.13;;;20.40;56.50;;;;;;6267487;28;20025;-71
2022/10/12 02:32:20;;;;;;;2.13;1.30;;;20.40;56.50;;;;;;6267341;28;20024;-71
2022/10/12 02:35:24;;;;;;;1.70;1.17;;;20.40;56.50;;;;;;6268657;28;20542;-70
2022/10/12 02:38:31;;;;;;;1.85;1.27;;;20.40;56.50;;;;;;6267478;28;20013;-71
2022/10/12 02:41:40;;;;;;;2.33;1.27;;;20.40;56.50;;;;;;6268641;28;20249;-71
2022/10/12 02:44:42;;;;;;;2.17;1.40;;;20.40;56.50;;;;;;6264413;28;20025;-71
2022/10/12 02:47:46;;;;;;;2.17;1.25;;;20.40;56.50;;;;;;6243633;28;20018;-71
2022/10/12 02:50:48;;;;;;;2.42;1.40;;;20.40;56.50;;;;;;6254424;28;20033;-71
2022/10/12 02:53:50;;;;;;;1.98;1.33;;;20.40;56.50;;;;;;6266879;28;20673;-71
2022/10/12 02:56:50;;;;;;;1.30;1.10;;;20.40;56.40;;;;;;6268058;28;20071;-71
2022/10/12 02:59:51;;;;;;;1.75;1.23;;;20.40;56.40;;;;;;6267934;28;20028;-70
2022/10/12 03:02:52;;;;;;;1.45;1.00;;;20.40;56.50;;;;;;6267840;28;20438;-70
2022/10/12 03:05:52;;;;;;;1.60;1.02;;;20.40;56.50;;;;;;6267856;28;20044;-71
2022/10/12 03:08:55;;;;;;;2.05;1.30;;;20.40;56.50;;;;;;6267648;28;20025;-71
2022/10/12 03:11:56;;;;;;;2.50;1.35;;;20.40;56.50;;;;;;6267726;28;20035;-71
2022/10/12 03:14:57;;;;;;;2.25;1.42;;;20.40;56.40;;;;;;6267645;28;20029;-71
2022/10/12 03:17:57;;;;;;;1.98;1.10;;;20.40;56.50;;;;;;6266156;28;20116;-71
2022/10/12 03:20:58;;;;;;;1.83;1.20;;;20.40;56.50;;;;;;6267154;28;20796;-70
2022/10/12 03:23:59;;;;;;;1.60;1.20;;;20.40;56.40;;;;;;6267267;28;20485;-71
2022/10/12 03:27:00;;;;;;;2.92;1.33;;;20.40;56.40;;;;;;6266260;28;20028;-68
2022/10/12 03:30:00;;;;;;;1.65;1.00;;;20.40;56.40;;;;;;6266020;28;20047;-69
2022/10/12 03:33:01;;;;;;;1.98;1.20;;;20.40;56.40;;;;;;6266357;28;20490;-68
2022/10/12 03:36:02;;;;;;;2.33;1.42;;;20.40;56.40;;;;;;6265878;28;20558;-68
2022/10/12 03:39:03;;;;;;;1.73;1.27;;;20.40;56.40;;;;;;6266140;28;20025;-68
2022/10/12 03:42:04;;;;;;;2.00;1.20;;;20.40;56.40;;;;;;6265612;28;20041;-68
2022/10/12 03:45:05;;;;;;;1.85;1.35;;;20.40;56.40;;;;;;6265736;28;20387;-68
2022/10/12 03:48:06;;;;;;;1.98;1.20;;;20.40;56.40;;;;;;6265658;28;20021;-68
2022/10/12 03:51:06;;;;;;;1.85;1.17;;;20.40;56.40;;;;;;6266025;28;20024;-68
2022/10/12 03:54:07;;;;;;;1.83;1.25;;;20.40;56.40;;;;;;6265703;28;20070;-68
2022/10/12 03:57:08;;;;;;;1.38;1.08;;;20.40;56.40;;;;;;6266024;28;20029;-68
2022/10/12 04:00:09;;;;;;;1.92;1.30;;;20.40;56.40;;;;;;6264798;28;20033;-68
2022/10/12 04:03:10;;;;;;;1.88;1.00;;;20.40;56.30;;;;;;6265799;28;20041;-68
2022/10/12 04:06:11;;;;;;;2.03;1.20;;;20.40;56.40;;;;;;6265551;28;20017;-68
2022/10/12 04:09:11;;;;;;;1.52;1.20;;;20.40;56.40;;;;;;6265464;28;20037;-68
2022/10/12 04:12:12;;;;;;;1.73;1.17;;;20.40;56.30;;;;;;6264363;28;20022;-68
2022/10/12 04:15:13;;;;;;;1.58;1.20;;;20.40;56.40;;;;;;6265581;28;20604;-68
2022/10/12 04:18:14;;;;;;;1.95;1.20;;;20.40;56.40;;;;;;6265553;28;20036;-68
2022/10/12 04:21:15;;;;;;;1.80;1.20;;;20.40;56.30;;;;;;6264578;28;20017;-68
2022/10/12 04:24:16;;;;;;;1.80;1.13;;;20.40;56.30;;;;;;6264555;28;20052;-68
2022/10/12 04:27:17;;;;;;;2.88;1.20;;;20.40;56.40;;;;;;6265840;28;20389;-69
2022/10/12 04:30:18;;;;;;;1.50;1.00;;;20.40;57.00;;;;;;6270086;28;20115;-68
2022/10/12 04:33:18;;;;;;;2.05;1.20;;;20.40;56.40;;;;;;6270416;28;20029;-68
2022/10/12 04:36:19;;;;;;;1.90;1.23;;;20.40;56.40;;;;;;6268796;28;20423;-68
2022/10/12 04:39:20;;;;;;;2.47;1.40;;;20.40;56.30;;;;;;6270706;28;20669;-68
2022/10/12 04:42:21;;;;;;;2.45;1.38;;;20.40;56.30;;;;;;6268351;28;20124;-68
2022/10/12 04:45:22;;;;;;;2.25;1.30;;;20.40;56.30;;;;;;6269661;28;20457;-68
2022/10/12 04:48:23;;;;;;;1.77;1.30;;;20.40;56.30;;;;;;6259938;28;20047;-68
2022/10/12 04:51:24;;;;;;;1.40;1.00;;;20.40;56.30;;;;;;6244983;28;20502;-68
2022/10/12 04:54:26;;;;;;;2.20;1.30;;;20.40;56.30;;;;;;6260605;28;20050;-68
2022/10/12 04:57:27;;;;;;;1.73;1.27;;;20.40;56.30;;;;;;6245033;28;20685;-68
2022/10/12 05:00:40;;;;;;;2.47;1.42;;;20.40;56.30;;;;;;6243408;28;20022;-68
2022/10/12 05:03:41;;;;;;;1.60;1.20;;;20.40;56.30;;;;;;6244495;28;20033;-68
2022/10/12 05:06:41;;;;;;;1.65;1.27;;;20.40;56.30;;;;;;6243273;28;20033;-69
2022/10/12 05:09:42;;;;;;;1.80;1.33;;;20.40;56.30;;;;;;6244723;28;20040;-68
2022/10/12 05:12:43;;;;;;;2.88;1.27;;;20.40;56.30;;;;;;6244648;28;20614;-68
2022/10/12 05:15:44;;;;;;;1.45;0.98;;;20.40;56.30;;;;;;6239806;28;20092;-68
2022/10/12 05:18:46;;;;;;;2.42;1.42;;;20.40;56.30;;;;;;6255466;28;20121;-69
2022/10/12 05:21:47;;;;;;;1.70;1.10;;;20.40;56.30;;;;;;6249878;28;20037;-68
2022/10/12 05:24:48;;;;;;;1.88;1.10;;;20.40;56.20;;;;;;6252273;28;20506;-69
2022/10/12 05:27:48;;;;;;;2.58;1.38;;;20.40;56.20;;;;;;6240577;28;20029;-69
2022/10/12 05:30:50;;;;;;;2.10;1.60;;;20.40;56.00;;;;;;6268917;28;20671;-69
2022/10/12 05:33:51;;;;;;;3.58;1.52;;;20.40;56.00;;;;;;6244672;28;20685;-68
2022/10/12 05:36:51;;;;;;;3.20;1.38;;;20.40;55.90;;;;;;6266929;28;20029;-69
2022/10/12 05:39:52;;;;;;;2.25;1.30;;;20.40;55.80;;;;;;6267947;28;20102;-69
2022/10/12 05:42:52;;;;;;;5.15;1.40;;;20.40;56.20;;;;;;6268300;28;20112;-68
2022/10/12 05:45:53;;;;;;;1.88;1.35;;;20.40;56.20;;;;;;6263154;28;20112;-69
2022/10/12 05:48:54;;;;;;;5.88;1.27;;;20.40;56.20;;;;;;6268080;28;20454;-68
2022/10/12 05:51:56;;;;;;;2.72;1.50;;;20.40;56.90;;;;;;6268074;28;20017;-68
2022/10/12 05:54:57;;;;;;;2.08;1.30;;;20.40;56.20;;;;;;6258777;28;20030;-68
2022/10/12 05:57:57;;;;;;;2.33;1.42;;;20.40;56.20;;;;;;6261570;28;20083;-68
2022/10/12 06:01:10;;;;;;;2.50;1.40;;;20.40;56.30;;;;;;6255795;28;20442;-68
2022/10/12 06:04:11;;;;;;;4.68;1.60;;;20.40;56.20;;;;;;6249712;28;20398;-68
2022/10/12 06:07:12;;;;;;;2.38;1.60;;;20.40;56.30;;;;;;6262528;28;20029;-68
2022/10/12 06:10:13;;;;;;;2.67;1.60;;;20.40;56.30;;;;;;6268949;28;20017;-68
2022/10/12 06:13:16;;;;;;;2.65;1.40;;;20.40;56.10;;;;;;6269416;28;20103;-68
2022/10/12 06:16:17;;;;;;;3.20;1.70;;;20.40;56.00;;;;;;6254378;28;20113;-68
2022/10/12 06:19:17;;;;;;;2.22;1.40;;;20.50;55.90;;;;;;6268931;28;20032;-69
2022/10/12 06:22:18;;;;;;;5.50;1.63;;;20.50;55.80;;;;;;6255882;28;20710;-68
2022/10/12 06:25:19;;;;;;;2.05;1.30;;;20.50;55.90;;;;;;6258532;28;20110;-69
2022/10/12 06:28:20;;;;;;;2.95;1.60;;;20.50;55.80;;;;;;6260922;28;20024;-69
2022/10/12 06:31:21;;;;;;;5.65;1.45;;;20.50;56.10;;;;;;6263579;28;20417;-68
2022/10/12 06:34:22;;;;;;;3.70;1.83;;;20.50;56.00;;;;;;6267830;28;20029;-68
2022/10/12 06:37:23;;;;;;;4.60;1.55;;;20.50;56.20;;;;;;6268532;28;20832;-68
2022/10/12 06:40:24;;;;;;;2.60;1.65;;;20.50;56.20;;;;;;6265658;28;20025;-68
2022/10/12 06:43:25;;;;;;;6.05;1.95;;;20.40;56.30;;;;;;6258607;28;20096;-68
2022/10/12 06:46:25;;;;;;;2.58;1.55;;;20.40;56.30;;;;;;6259294;28;20033;-68
2022/10/12 06:49:26;;;;;;;2.58;1.77;;;20.40;56.30;;;;;;6264711;28;20052;-69
2022/10/12 06:52:27;;;;;;;2.60;1.80;;;20.40;56.40;;;;;;6267728;28;20021;-69
2022/10/12 06:55:28;;;;;;;3.85;2.13;;;20.40;56.50;;;;;;6266334;28;20082;-68
2022/10/12 06:58:29;;;;;;;2.75;1.98;;;20.40;56.50;;;;;;6268190;28;20086;-68
2022/10/12 07:01:30;;;;;;;4.75;1.88;;;20.40;56.50;;;;;;6258424;28;20030;-69
2022/10/12 07:04:30;;;;;;;6.60;1.95;;;20.40;56.40;;;;;;6264340;28;20480;-68
2022/10/12 07:07:32;;;;;;;4.57;1.80;;;20.40;56.50;;;;;;6249314;28;20028;-68
2022/10/12 07:10:33;;;;;;;2.88;1.60;;;20.40;56.50;;;;;;6250846;28;20029;-70
2022/10/12 07:13:34;;;;;;;3.63;1.83;;;20.40;56.50;;;;;;6269168;28;20067;-71
2022/10/12 07:16:35;;;;;;;3.10;1.90;;;20.40;56.50;;;;;;6268133;28;20021;-71
2022/10/12 07:19:36;;;;;;;2.33;1.73;;;20.40;56.50;;;;;;6268420;28;20029;-71
2022/10/12 07:22:37;;;;;;;3.00;1.90;;;20.40;56.50;;;;;;6251876;28;20430;-72
2022/10/12 07:25:37;;;;;;;3.63;1.75;;;20.40;56.50;;;;;;6254696;28;20102;-71
2022/10/12 07:28:40;;;;;;;2.35;1.70;;;20.40;56.50;;;;;;6258747;28;20025;-71
2022/10/12 07:31:42;;;;;;;3.22;2.00;;;20.40;56.50;;;;;;6253950;28;20112;-71
2022/10/12 07:34:44;;;;;;;2.78;1.50;;;20.40;56.50;;;;;;6255365;28;20033;-71
2022/10/12 07:37:47;;;;;;;3.45;1.88;;;20.40;56.50;;;;;;6253300;28;20033;-71
2022/10/12 07:40:51;;;;;;;3.15;2.00;;;20.40;56.50;;;;;;6243417;28;20029;-71
2022/10/12 07:43:55;;;;;;;4.22;2.30;;;20.40;56.50;;;;;;6253282;28;20033;-71
2022/10/12 07:46:56;;;;;;;8.07;2.20;;;20.40;56.60;;;;;;6247450;28;20025;-71
2022/10/12 07:49:56;;;;;;;3.25;2.03;;;20.40;56.50;;;;;;6278528;28;20045;-71
2022/10/12 07:52:57;;;;;;;4.10;2.15;;;20.40;56.60;;;;;;6266379;28;20033;-71
2022/10/12 07:56:04;;;;;;;3.47;2.28;;;20.40;56.60;;;;;;6267572;28;20111;-71
2022/10/12 07:59:04;;;;;;;3.45;2.30;;;20.40;56.60;;;;;;6267554;28;20053;-71
2022/10/12 08:02:05;;;;;;;5.55;1.90;;;20.40;56.60;;;;;;6268649;28;20029;-72
2022/10/12 08:05:06;;;;;;;8.70;2.35;;;20.40;56.50;;;;;;6272441;28;20044;-71
2022/10/12 08:08:07;;;;;;;4.57;2.42;;;20.40;56.60;;;;;;6261004;28;20033;-72
2022/10/12 08:11:09;;;;;;;5.30;2.40;;;20.40;56.60;;;;;;6268924;28;20482;-71
2022/10/12 08:14:14;;;;;;;4.20;2.40;;;20.40;56.70;;;;;;6259569;28;20033;-71
2022/10/12 08:17:15;;;;;;;4.40;2.58;;;20.40;56.70;;;;;;6270581;28;20188;-71
2022/10/12 08:20:16;;;;;;;3.75;2.03;;;20.40;56.70;;;;;;6248280;28;20672;-71
2022/10/12 08:23:17;;;;;;;3.75;2.20;;;20.40;56.70;;;;;;6265915;28;20025;-72
2022/10/12 08:26:18;;;;;;;5.85;2.78;;;20.40;56.70;;;;;;6250831;28;20108;-71
2022/10/12 08:29:19;;;;;;;3.38;2.25;;;20.40;56.60;;;;;;6264929;28;20031;-71
2022/10/12 08:32:20;;;;;;;5.63;2.70;;;20.40;56.70;;;;;;6272446;28;20013;-71
2022/10/12 08:35:20;;;;;;;3.65;2.38;;;20.40;56.70;;;;;;6272078;28;20091;-71
2022/10/12 08:38:21;;;;;;;3.67;2.17;;;20.40;56.80;;;;;;6265694;28;20101;-71
2022/10/12 08:42:07;;;;;;;5.47;2.35;;;20.30;56.60;;;;;;6270692;28;20026;-71
2022/10/12 08:45:49;;;;;;;4.25;2.30;;;20.40;56.80;;;;;;6220910;28;20591;-71
2022/10/12 08:49:01;;;;;;;4.05;2.45;;;20.30;56.60;;;;;;6265612;28;20502;-71
2022/10/12 08:52:05;;;;;;;4.13;2.05;;;20.40;56.70;;;;;;6271579;28;20088;-71
2022/10/12 08:55:24;;;;;;;3.92;2.22;;;20.40;56.70;;;;;;6272274;28;20021;-71
2022/10/12 08:58:34;;;;;;;4.75;2.47;;;20.30;56.60;;;;;;6265805;28;20014;-68
2022/10/12 09:01:43;;;;;;;6.25;2.30;;;20.30;56.70;;;;;;6245408;28;20029;-68
2022/10/12 09:04:49;;;;;;;6.60;2.45;;;20.40;56.70;;;;;;6269304;28;20055;-68
2022/10/12 09:07:58;;;;;;;4.40;2.20;;;20.40;56.60;;;;;;6270190;28;20630;-68
2022/10/12 09:11:20;;;;;;;12.93;2.80;;;20.40;56.80;;;;;;6270094;28;20025;-68
2022/10/12 09:14:30;;;;;;;4.47;2.38;;;20.30;56.70;;;;;;6258501;28;20046;-68
2022/10/12 09:17:53;;;;;;;3.08;1.88;;;20.40;56.70;;;;;;6246660;28;20509;-68
2022/10/12 09:20:56;;;;;;;5.43;1.90;;;20.30;56.70;;;;;;6245489;28;20421;-68
2022/10/12 09:23:57;;;;;;;4.00;2.20;;;20.40;56.70;;;;;;6257602;28;20098;-68
2022/10/12 09:26:59;;;;;;;2.80;1.70;;;20.40;56.80;;;;;;6245938;28;20025;-68
2022/10/12 09:30:02;;;;;;;3.95;2.20;;;20.40;56.70;;;;;;6256517;28;20092;-69
2022/10/12 09:33:17;;;;;;;4.03;2.25;;;20.40;56.70;;;;;;6270804;28;20025;-69
2022/10/12 09:36:24;;;;;;;4.78;2.10;;;20.30;56.80;;;;;;6264359;28;20025;-68
2022/10/12 09:39:33;;;;;;;8.68;2.40;;;20.30;56.50;;;;;;6270494;28;20058;-68
2022/10/12 09:42:34;;;;;;;8.50;2.38;;;20.40;56.20;;;;;;6269142;28;20107;-68
2022/10/12 09:45:36;;;;;;;6.75;2.35;;;20.30;56.30;;;;;;6260218;28;20026;-68
2022/10/12 09:48:37;;;;;;;4.95;2.00;;;20.40;56.40;;;;;;6245854;28;20046;-68
2022/10/12 09:51:38;;;;;;;5.10;2.45;;;20.30;56.40;;;;;;6246383;28;20064;-68
2022/10/12 09:54:45;;;;;;;4.15;2.20;;;20.30;56.30;;;;;;6249732;28;20029;-69
2022/10/12 09:57:55;;;;;;;4.60;2.20;;;20.30;56.40;;;;;;6269941;28;20033;-68
2022/10/12 10:01:20;;;;;;;4.28;2.17;;;20.30;56.30;;;;;;6264084;28;20040;-68
2022/10/12 10:04:25;;;;;;;5.43;2.20;;;20.30;56.40;;;;;;6268821;28;20023;-69
2022/10/12 10:07:33;;;;;;;6.90;2.30;;;20.30;56.50;;;;;;6262983;28;20021;-68
2022/10/12 10:10:34;;;;;;;4.03;2.20;;;20.30;56.50;;;;;;6257138;28;20603;-68
2022/10/12 10:13:36;;;;;;;8.70;2.47;;;20.30;56.50;;;;;;6268643;28;20056;-68
2022/10/12 10:16:47;;;;;;;4.82;2.08;;;20.30;56.50;;;;;;6250168;28;20037;-69
2022/10/12 10:19:50;;;;;;;4.13;2.10;;;20.30;56.50;;;;;;6266025;28;20068;-68
2022/10/12 10:22:51;;;;;;;3.97;2.20;;;20.30;56.50;;;;;;6265408;28;20017;-69
2022/10/12 10:26:02;;;;;;;2.92;1.73;;;20.40;56.60;;;;;;6276101;28;20025;-68
2022/10/12 10:29:20;;;;;;;4.45;1.80;;;20.40;56.70;;;;;;6243966;28;20497;-68
2022/10/12 10:32:25;;;;;;;6.70;2.35;;;20.40;56.70;;;;;;6259658;28;20533;-68
2022/10/12 10:35:26;;;;;;;5.22;1.70;;;20.30;56.50;;;;;;6263709;28;20033;-68
2022/10/12 10:38:31;;;;;;;4.97;1.95;;;20.30;56.60;;;;;;6242907;28;20053;-68
2022/10/12 10:41:36;;;;;;;4.85;1.75;;;20.30;56.60;;;;;;6251072;28;20021;-68
2022/10/12 10:44:37;;;;;;;2.78;1.58;;;20.40;56.70;;;;;;6265596;28;20465;-68
2022/10/12 10:47:45;;;;;;;3.88;1.92;;;20.30;56.60;;;;;;6242564;28;20037;-68
2022/10/12 10:51:03;;;;;;;5.22;2.38;;;20.30;56.70;;;;;;6247551;28;20059;-68
2022/10/12 10:54:29;;;;;;;2.80;1.75;;;20.30;56.70;;;;;;6267842;28;20030;-68
2022/10/12 10:57:32;;;;;;;4.22;1.92;;;20.30;56.70;;;;;;6267139;28;20091;-68
2022/10/12 11:00:38;;;;;;;6.50;1.98;;;20.30;56.70;;;;;;6250238;28;20379;-68
2022/10/12 11:03:47;;;;;;;3.05;1.73;;;20.40;56.80;;;;;;6267541;28;20033;-68
2022/10/12 11:06:53;;;;;;;4.95;2.08;;;20.30;56.70;;;;;;6262154;28;20017;-69
2022/10/12 11:09:58;;;;;;;4.35;1.73;;;20.30;56.70;;;;;;6267900;28;20075;-68
2022/10/12 11:13:07;;;;;;;2.38;1.63;;;20.30;56.80;;;;;;6267837;28;20028;-68
2022/10/12 11:16:23;;;;;;;3.40;1.58;;;20.30;56.70;;;;;;6257466;28;20402;-68
2022/10/12 11:19:40;;;;;;;5.70;2.08;;;20.30;56.80;;;;;;6241990;28;20053;-68
2022/10/12 11:22:53;;;;;;;3.60;1.70;;;20.30;56.90;;;;;;6264692;28;20032;-68
2022/10/12 11:26:08;;;;;;;3.40;1.70;;;20.30;56.70;;;;;;6275119;28;20020;-68
2022/10/12 11:29:11;;;;;;;;;;;20.30;56.80;;;;;;6265896;28;20021;-68
2022/10/12 11:32:24;;;;;;;3.80;1.77;;;20.30;56.80;;;;;;6264284;28;20171;-68
2022/10/12 11:35:33;;;;;;;2.05;1.60;;;20.30;57.00;;;;;;6242380;28;20022;-68
2022/10/12 11:38:49;;;;;;;3.17;1.73;;;20.40;56.80;;;;;;6258941;28;20104;-69
2022/10/12 11:41:52;;;;;;;2.90;1.85;;;20.40;56.90;;;;;;6246815;28;20524;-69
2022/10/12 11:44:54;;;;;;;2.90;1.50;;;20.40;56.90;;;;;;6262613;28;20045;-68
2022/10/12 11:48:01;;;;;;;2.60;1.52;;;20.40;56.90;;;;;;6251075;28;20043;-68
2022/10/12 11:51:03;;;;;;;4.18;1.55;;;20.40;57.00;;;;;;6267701;28;20510;-71
2022/10/12 11:54:13;;;;;;;2.35;1.25;;;20.30;56.90;;;;;;6267238;28;20805;-72
2022/10/12 11:57:27;;;;;;;3.58;1.52;;;20.30;56.90;;;;;;6265667;28;20024;-70
2022/10/12 12:00:42;;;;;;;3.47;1.30;;;20.40;57.00;;;;;;6266643;28;20022;-70
2022/10/12 12:03:44;;;;;;;1.67;1.33;;;20.30;56.90;;;;;;6263136;28;20028;-69
2022/10/12 12:07:28;;;;;;;3.42;1.45;;;20.40;57.00;;;;;;6265330;28;20036;-70
2022/10/12 12:10:34;;;;;;;2.58;1.42;;;20.30;56.90;;;;;;6264807;28;20037;-69
2022/10/12 12:13:34;;;;;;;2.83;1.35;;;20.40;57.00;;;;;;6266504;28;20052;-70
2022/10/12 12:16:41;;;;;;;2.45;1.40;;;20.30;56.90;;;;;;6265103;28;20493;-70
2022/10/12 12:19:44;;;;;;;4.20;1.90;;;20.30;56.90;;;;;;6261940;28;20572;-69
2022/10/12 12:22:49;;;;;;;1.77;1.08;;;20.40;57.10;;;;;;6260816;28;20382;-69
2022/10/12 12:26:08;;;;;;;5.65;1.65;;;20.40;57.00;;;;;;6262709;28;20044;-69
2022/10/12 12:29:26;;;;;;;4.38;1.55;;;20.40;57.00;;;;;;6259471;28;20076;-69
2022/10/12 12:32:44;;;;;;;2.53;1.40;;;20.30;57.00;;;;;;6244682;28;20022;-68
2022/10/12 12:35:56;;;;;;;1.75;1.38;;;20.30;57.00;;;;;;6265869;28;20110;-69
2022/10/12 12:38:57;;;;;;;2.60;1.40;;;20.30;57.00;;;;;;6246941;28;20542;-69
2022/10/12 12:42:00;;;;;;;2.83;1.30;;;20.30;57.10;;;;;;6241147;28;20036;-69
2022/10/12 12:45:33;;;;;;;2.65;1.25;;;20.30;57.00;;;;;;6258157;28;20025;-69
2022/10/12 12:48:43;;;;;;;1.63;1.10;;;20.30;57.00;;;;;;6237057;28;20613;-70
2022/10/12 12:51:44;;;;;;;3.38;1.38;;;20.30;57.00;;;;;;6254993;28;20927;-70
2022/10/12 12:55:02;;;;;;;2.95;1.58;;;20.30;57.00;;;;;;6245418;28;20026;-70
2022/10/12 12:58:28;;;;;;;2.63;1.35;;;20.40;57.10;;;;;;6252615;28;20036;-70
2022/10/12 13:01:53;;;;;;;3.10;1.30;;;20.40;56.80;;;;;;6267812;28;20096;-70
2022/10/12 13:05:03;;;;;;;2.92;1.30;;;20.50;56.80;;;;;;6267691;28;20516;-71
2022/10/12 13:08:25;;;;;;;5.43;1.40;;;20.50;56.60;;;;;;6267723;28;20029;-70
2022/10/12 13:12:16;;;;;;;2.45;1.25;;;20.50;56.60;;;;;;6264894;28;20083;-70
2022/10/12 13:15:53;;;;;;;2.40;1.38;;;20.50;56.50;;;;;;6267666;28;20520;-70
2022/10/12 13:19:08;;;;;;;4.53;1.35;;;20.50;56.50;;;;;;6244925;28;20418;-70
2022/10/12 13:22:25;;;;;;;3.60;1.55;;;20.50;56.50;;;;;;6267647;28;20029;-71
2022/10/12 13:25:35;;;;;;;3.47;1.52;;;20.50;57.30;;;;;;6266981;28;20115;-69
2022/10/12 13:28:42;;;;;;;3.92;1.45;;;20.50;56.80;;;;;;6267365;28;20028;-70
2022/10/12 13:31:46;;;;;;;3.30;1.25;;;20.50;56.80;;;;;;6269553;28;20390;-70
2022/10/12 13:34:50;;;;;;;1.90;1.10;;;20.50;56.90;;;;;;6256013;28;20071;-70
2022/10/12 13:38:02;;;;;;;1.95;1.00;;;20.50;57.00;;;;;;6244457;28;20087;-69
2022/10/12 13:41:09;;;;;;;3.90;1.30;;;20.40;57.00;;;;;;6265375;28;20455;-70
2022/10/12 13:44:20;;;;;;;3.25;1.33;;;20.40;57.00;;;;;;6267035;28;20017;-70
2022/10/12 13:47:31;;;;;;;3.67;0.95;;;20.40;57.00;;;;;;6247351;28;20021;-70
2022/10/12 13:50:31;;;;;;;2.10;1.00;;;20.40;57.00;;;;;;6267964;28;20523;-70
2022/10/12 13:53:36;;;;;;;3.97;1.25;;;20.40;57.10;;;;;;6267505;28;20036;-70
2022/10/12 13:56:38;;;;;;;2.30;1.13;;;20.40;57.10;;;;;;6268349;28;20029;-70
2022/10/12 13:59:39;;;;;;;2.85;1.23;;;20.40;57.20;;;;;;6267588;28;20273;-69
2022/10/12 14:02:41;;;;;;;1.98;1.13;;;20.40;57.10;;;;;;6268719;28;20469;-69
2022/10/12 14:05:44;;;;;;;2.58;1.23;;;20.40;57.10;;;;;;6267299;28;20032;-70
2022/10/12 14:08:45;;;;;;;1.88;1.30;;;20.40;57.20;;;;;;6268355;28;20381;-70
2022/10/12 14:11:46;;;;;;;2.35;1.10;;;20.40;57.10;;;;;;6268411;28;20032;-70
2022/10/12 14:14:48;;;;;;;2.58;1.33;;;20.40;57.20;;;;;;6266902;28;20500;-70
2022/10/12 14:17:49;;;;;;;2.55;1.30;;;20.40;57.20;;;;;;6267909;28;20028;-74
2022/10/12 14:21:11;;;;;;;1.77;1.00;;;20.40;57.20;;;;;;6267435;28;20028;-69
2022/10/12 14:24:18;;;;;;;2.17;0.90;;;20.40;57.20;;;;;;6266775;28;20029;-71
2022/10/12 14:27:28;;;;;;;2.25;1.17;;;20.40;57.10;;;;;;6243274;28;20017;-70
2022/10/12 14:30:33;;;;;;;6.38;1.90;;;20.40;56.50;;;;;;6236400;28;20123;-70
2022/10/12 14:33:35;;;;;;;1.98;1.20;;;20.40;56.30;;;;;;6252949;28;20032;-70
2022/10/12 14:36:35;;;;;;;1.90;1.05;;;20.40;56.00;;;;;;6270488;28;20035;-71
2022/10/12 14:39:36;;;;;;;6.47;1.30;;;20.40;56.80;;;;;;6264608;28;20033;-70
2022/10/12 14:42:37;;;;;;;3.00;1.10;;;20.50;56.50;;;;;;6269183;28;20033;-70
2022/10/12 14:45:38;;;;;;;4.25;1.42;;;20.50;56.40;;;;;;6269733;28;20021;-71
2022/10/12 14:48:38;;;;;;;3.67;1.35;;;20.50;56.40;;;;;;6262405;28;20068;-70
2022/10/12 14:51:39;;;;;;;6.40;1.25;;;20.50;56.10;;;;;;6258682;28;20025;-71
2022/10/12 14:54:40;;;;;;;8.52;1.27;;;20.50;56.30;;;;;;6252459;28;20053;-70
2022/10/12 14:57:41;;;;;;;4.88;1.42;;;20.50;56.20;;;;;;6263806;28;20036;-70
2022/10/12 15:00:42;;;;;;;4.60;1.17;;;20.50;55.90;;;;;;6249618;28;20036;-71
2022/10/12 15:03:43;;;;;;;3.75;1.60;;;20.50;55.30;;;;;;6249960;28;20021;-71
2022/10/12 15:06:44;;;;;;;5.15;1.60;;;20.50;55.10;;;;;;6264290;28;20052;-70
2022/10/12 15:09:45;;;;;;;4.55;1.55;;;20.50;54.40;;;;;;6266094;28;20025;-69
2022/10/12 15:12:46;;;;;;;5.07;1.35;;;20.50;54.40;;;;;;6265839;28;20036;-70
2022/10/12 15:15:48;;;;;;;6.13;1.70;;;20.50;53.90;;;;;;6263315;28;20032;-70
2022/10/12 15:18:49;;;;;;;5.75;1.40;;;20.50;53.60;;;;;;6264998;28;20021;-70
2022/10/12 15:21:50;;;;;;;5.55;1.52;;;20.50;53.80;;;;;;6269343;28;20035;-69
2022/10/12 15:24:52;;;;;;;7.38;1.60;;;20.50;53.50;;;;;;6277561;28;20021;-69
2022/10/12 15:27:53;;;;;;;8.23;1.70;;;20.50;53.10;;;;;;6242452;28;20025;-69
2022/10/12 15:30:55;;;;;;;5.63;1.60;;;20.50;53.20;;;;;;6245254;28;20064;-70
2022/10/12 15:33:56;;;;;;;9.55;1.80;;;20.50;53.20;;;;;;6291838;28;20035;-70
2022/10/12 15:36:57;;;;;;;6.53;1.40;;;20.50;53.10;;;;;;6272401;28;20025;-69
2022/10/12 15:39:57;;;;;;;5.40;1.73;;;20.50;53.10;;;;;;6266849;28;20052;-70
2022/10/12 15:42:58;;;;;;;2.67;1.50;;;20.50;53.70;;;;;;6266279;28;20331;-71
2022/10/12 15:45:59;;;;;;;5.75;2.03;;;20.50;53.70;;;;;;6256741;28;20553;-69
2022/10/12 15:49:00;;;;;;;4.72;1.65;;;20.50;52.90;;;;;;6266894;28;20103;-68
2022/10/12 15:52:00;;;;;;;6.20;2.20;;;20.50;53.50;;;;;;6274690;28;20374;-68
2022/10/12 15:55:01;;;;;;;5.22;1.92;;;20.50;53.00;;;;;;6289987;28;20083;-69
2022/10/12 15:58:02;;;;;;;4.72;2.08;;;20.50;52.90;;;;;;6271327;28;20029;-69
2022/10/12 16:01:03;;;;;;;5.97;1.70;;;20.50;53.20;;;;;;6265005;28;20725;-68
2022/10/12 16:04:05;;;;;;;5.95;2.10;;;20.50;53.30;;;;;;6242292;28;20037;-69
2022/10/12 16:07:06;;;;;;;5.55;1.73;;;20.50;53.40;;;;;;6251990;28;20185;-68